createdAt,value
2023-03-02T00:00:26.154Z,24.00
2023-03-02T00:01:26.153Z,23.40
2023-03-02T00:02:26.220Z,24.40
2023-03-02T00:03:26.235Z,24.00
2023-03-02T00:04:26.150Z,23.60
2023-03-02T00:05:26.099Z,23.20
2023-03-02T00:06:26.090Z,22.90
2023-03-02T00:07:26.098Z,23.50
2023-03-02T00:08:26.088Z,23.70
2023-03-02T00:09:26.098Z,23.80
2023-03-02T00:10:26.070Z,23.70
2023-03-02T00:11:26.029Z,24.20
2023-03-02T00:12:26.028Z,23.10
2023-03-02T00:13:26.003Z,24.10
2023-03-02T00:14:26.012Z,23.00
2023-03-02T00:15:25.970Z,23.60
2023-03-02T00:16:26.145Z,22.90
2023-03-02T00:17:25.960Z,22.80
2023-03-02T00:18:25.963Z,23.50
2023-03-02T00:19:25.921Z,24.20
2023-03-02T00:20:25.912Z,24.90
2023-03-02T00:21:25.912Z,22.50
2023-03-02T00:22:25.917Z,24.20
2023-03-02T00:23:25.882Z,24.20
2023-03-02T00:24:25.866Z,23.70
2023-03-02T00:25:25.874Z,24.10
2023-03-02T00:26:25.850Z,25.10
2023-03-02T00:27:25.821Z,24.70
2023-03-02T00:28:25.867Z,24.90
2023-03-02T00:29:25.798Z,24.10
2023-03-02T00:30:25.789Z,24.60
2023-03-02T00:31:25.851Z,23.90
2023-03-02T00:32:25.858Z,25.10
2023-03-02T00:33:25.782Z,24.70
2023-03-02T00:34:25.783Z,23.90
2023-03-02T00:35:25.789Z,24.70
2023-03-02T00:36:25.724Z,25.40
2023-03-02T00:37:25.739Z,26.00
2023-03-02T00:38:25.715Z,24.50
2023-03-02T00:39:25.697Z,25.60
2023-03-02T00:40:25.698Z,24.40
2023-03-02T00:41:25.668Z,24.50
2023-03-02T00:42:25.656Z,24.60
2023-03-02T00:43:25.636Z,25.40
2023-03-02T00:44:25.619Z,25.50
2023-03-02T00:45:25.604Z,24.60
2023-03-02T00:46:25.686Z,25.50
2023-03-02T00:47:25.601Z,24.60
2023-03-02T00:48:25.573Z,24.30
2023-03-02T00:49:25.552Z,25.00
2023-03-02T00:50:25.538Z,24.10
2023-03-02T00:51:25.533Z,25.20
2023-03-02T00:52:25.553Z,25.50
2023-03-02T00:53:25.530Z,24.40
2023-03-02T00:54:25.502Z,25.10
2023-03-02T00:55:25.480Z,24.80
2023-03-02T00:56:25.478Z,25.00
2023-03-02T00:57:25.470Z,23.90
2023-03-02T00:58:25.470Z,25.10
2023-03-02T00:59:25.451Z,23.90
2023-03-02T01:00:25.419Z,24.40
2023-03-02T01:01:25.443Z,24.70
2023-03-02T01:02:25.593Z,24.80
2023-03-02T01:03:25.497Z,24.70
2023-03-02T01:04:25.428Z,24.40
2023-03-02T01:05:25.386Z,25.40
2023-03-02T01:06:25.361Z,23.70
2023-03-02T01:07:25.375Z,23.60
2023-03-02T01:08:25.371Z,24.50
2023-03-02T01:09:25.319Z,24.20
2023-03-02T01:10:25.336Z,25.00
2023-03-02T01:11:25.284Z,24.40
2023-03-02T01:12:25.278Z,24.00
2023-03-02T01:13:25.308Z,24.50
2023-03-02T01:14:25.307Z,25.40
2023-03-02T01:15:25.243Z,25.20
2023-03-02T01:16:25.434Z,25.60
2023-03-02T01:17:25.256Z,24.80
2023-03-02T01:18:25.200Z,25.60
2023-03-02T01:19:25.185Z,27.00
2023-03-02T01:20:25.211Z,26.10
2023-03-02T01:21:25.158Z,25.80
2023-03-02T01:22:25.182Z,27.20
2023-03-02T01:23:25.141Z,25.90
2023-03-02T01:24:25.130Z,25.20
2023-03-02T01:25:25.123Z,25.50
2023-03-02T01:26:25.127Z,26.20
2023-03-02T01:27:25.116Z,26.10
2023-03-02T01:28:25.120Z,26.40
2023-03-02T01:29:25.095Z,25.60
2023-03-02T01:30:25.067Z,26.80
2023-03-02T01:31:25.093Z,25.40
2023-03-02T01:32:25.089Z,26.30
2023-03-02T01:33:25.024Z,25.90
2023-03-02T01:34:25.046Z,26.90
2023-03-02T01:35:25.073Z,27.60
2023-03-02T01:36:25.003Z,26.50
2023-03-02T01:37:24.968Z,26.60
2023-03-02T01:38:25.003Z,25.50
2023-03-02T01:39:24.950Z,27.10
2023-03-02T01:40:25.002Z,25.40
2023-03-02T01:41:24.909Z,25.80
2023-03-02T01:42:24.913Z,25.90
2023-03-02T01:43:24.909Z,25.80
2023-03-02T01:44:24.915Z,26.80
2023-03-02T01:45:24.893Z,26.00
2023-03-02T01:46:24.882Z,25.90
2023-03-02T01:47:24.848Z,25.90
2023-03-02T01:48:24.834Z,25.40
2023-03-02T01:49:24.812Z,26.00
2023-03-02T01:50:24.814Z,24.60
2023-03-02T01:51:24.789Z,24.90
2023-03-02T01:52:24.819Z,25.40
2023-03-02T01:53:24.795Z,26.00
2023-03-02T01:54:24.756Z,24.70
2023-03-02T01:55:24.808Z,25.60
2023-03-02T01:56:24.736Z,26.10
2023-03-02T01:57:24.715Z,25.10
2023-03-02T01:58:24.741Z,26.30
2023-03-02T01:59:24.698Z,25.80
2023-03-02T02:01:36.221Z,26.20
2023-03-02T02:02:37.198Z,25.50
2023-03-02T02:03:37.264Z,25.50
2023-03-02T02:04:37.166Z,26.40
2023-03-02T02:05:37.158Z,25.70
2023-03-02T02:06:37.141Z,26.60
2023-03-02T02:07:37.161Z,26.20
2023-03-02T02:08:58.162Z,25.10
2023-03-02T02:09:37.103Z,26.80
2023-03-02T02:10:37.119Z,26.50
2023-03-02T02:11:37.092Z,26.30
2023-03-02T02:12:37.094Z,26.80
2023-03-02T02:13:37.075Z,26.90
2023-03-02T02:14:37.078Z,27.00
2023-03-02T02:15:37.027Z,27.30
2023-03-02T02:16:37.092Z,27.60
2023-03-02T02:17:37.027Z,27.80
2023-03-02T02:18:37.017Z,26.50
2023-03-02T02:19:36.987Z,26.20
2023-03-02T02:20:37.016Z,27.90
2023-03-02T02:21:36.950Z,27.10
2023-03-02T02:22:36.948Z,27.00
2023-03-02T02:23:36.946Z,28.50
2023-03-02T02:24:36.949Z,27.30
2023-03-02T02:25:36.908Z,28.20
2023-03-02T02:26:36.919Z,28.10
2023-03-02T02:27:36.911Z,27.70
2023-03-02T02:28:36.919Z,27.50
2023-03-02T02:29:36.866Z,27.60
2023-03-02T02:30:36.856Z,27.10
2023-03-02T02:31:36.900Z,27.50
2023-03-02T02:32:36.973Z,27.30
2023-03-02T02:33:36.820Z,27.60
2023-03-02T02:34:36.816Z,28.20
2023-03-02T02:35:36.794Z,27.90
2023-03-02T02:36:36.768Z,28.30
2023-03-02T02:37:36.761Z,28.50
2023-03-02T02:38:36.804Z,26.80
2023-03-02T02:39:36.750Z,29.00
2023-03-02T02:40:36.716Z,27.50
2023-03-02T02:41:36.703Z,28.50
2023-03-02T02:42:36.727Z,29.00
2023-03-02T02:43:36.707Z,28.80
2023-03-02T02:44:36.718Z,28.50
2023-03-02T02:45:36.748Z,29.40
2023-03-02T02:46:36.654Z,27.70
2023-03-02T02:47:36.679Z,28.60
2023-03-02T02:48:36.630Z,27.60
2023-03-02T02:49:36.624Z,29.70
2023-03-02T02:50:36.649Z,28.70
2023-03-02T02:51:36.618Z,29.90
2023-03-02T02:52:36.585Z,27.50
2023-03-02T02:53:36.616Z,28.10
2023-03-02T02:54:36.561Z,29.00
2023-03-02T02:55:36.543Z,29.20
2023-03-02T02:56:36.550Z,28.90
2023-03-02T02:57:36.525Z,29.10
2023-03-02T02:58:36.510Z,30.60
2023-03-02T02:59:36.496Z,29.90
2023-03-02T03:00:36.471Z,31.10
2023-03-02T03:01:36.531Z,30.60
2023-03-02T03:02:36.505Z,29.90
2023-03-02T03:03:36.437Z,30.00
2023-03-02T03:04:36.489Z,29.80
2023-03-02T03:05:36.410Z,29.80
2023-03-02T03:06:36.452Z,30.30
2023-03-02T03:07:36.382Z,31.20
2023-03-02T03:08:36.451Z,29.00
2023-03-02T03:09:36.426Z,30.60
2023-03-02T03:10:36.377Z,30.40
2023-03-02T03:11:36.337Z,30.60
2023-03-02T03:12:36.351Z,29.00
2023-03-02T03:13:36.329Z,30.60
2023-03-02T03:14:36.355Z,29.90
2023-03-02T03:15:36.309Z,30.70
2023-03-02T03:16:36.504Z,31.50
2023-03-02T03:17:36.280Z,30.10
2023-03-02T03:18:36.240Z,30.60
2023-03-02T03:19:36.268Z,31.40
2023-03-02T03:20:36.252Z,31.70
2023-03-02T03:21:36.208Z,30.60
2023-03-02T03:22:36.201Z,31.30
2023-03-02T03:23:36.208Z,31.90
2023-03-02T03:24:36.225Z,31.80
2023-03-02T03:25:36.207Z,31.50
2023-03-02T03:26:36.211Z,30.70
2023-03-02T03:27:36.142Z,31.60
2023-03-02T03:28:36.125Z,31.20
2023-03-02T03:29:36.122Z,30.60
2023-03-02T03:30:36.170Z,29.90
2023-03-02T03:31:36.097Z,31.10
2023-03-02T03:32:36.122Z,30.00
2023-03-02T03:33:36.093Z,31.10
2023-03-02T03:34:36.057Z,30.40
2023-03-02T03:35:36.121Z,30.70
2023-03-02T03:36:36.008Z,30.50
2023-03-02T03:37:36.032Z,31.50
2023-03-02T03:38:36.058Z,32.30
2023-03-02T03:39:35.983Z,31.30
2023-03-02T03:40:36.001Z,33.00
2023-03-02T03:41:35.951Z,31.20
2023-03-02T03:42:35.949Z,30.70
2023-03-02T03:43:35.929Z,33.60
2023-03-02T03:44:35.945Z,30.80
2023-03-02T03:45:35.908Z,31.90
2023-03-02T03:46:36.339Z,33.20
2023-03-02T03:47:35.883Z,33.10
2023-03-02T03:48:35.904Z,31.80
2023-03-02T03:49:35.897Z,32.80
2023-03-02T03:50:35.939Z,33.80
2023-03-02T03:51:35.859Z,31.40
2023-03-02T03:52:35.805Z,31.50
2023-03-02T03:53:35.810Z,33.60
2023-03-02T03:54:35.832Z,31.00
2023-03-02T03:55:35.782Z,31.70
2023-03-02T03:56:35.848Z,31.30
2023-03-02T03:57:35.819Z,33.40
2023-03-02T03:58:35.817Z,32.70
2023-03-02T03:59:35.734Z,31.30
2023-03-02T04:00:35.704Z,31.70
2023-03-02T04:01:35.738Z,31.40
2023-03-02T04:02:35.779Z,31.00
2023-03-02T04:03:35.690Z,30.50
2023-03-02T04:04:35.725Z,29.50
2023-03-02T04:05:35.670Z,30.10
2023-03-02T04:06:35.717Z,28.40
2023-03-02T04:07:35.678Z,30.90
2023-03-02T04:08:35.646Z,30.50
2023-03-02T04:09:35.624Z,31.00
2023-03-02T04:10:35.605Z,29.30
2023-03-02T04:11:35.598Z,29.00
2023-03-02T04:12:35.571Z,29.20
2023-03-02T04:13:35.549Z,27.60
2023-03-02T04:14:35.596Z,27.90
2023-03-02T04:15:35.611Z,27.50
2023-03-02T04:16:35.721Z,27.50
2023-03-02T04:17:35.498Z,28.10
2023-03-02T04:18:35.500Z,27.90
2023-03-02T04:19:35.497Z,26.80
2023-03-02T04:20:35.517Z,28.70
2023-03-02T04:21:35.455Z,27.30
2023-03-02T04:22:35.446Z,28.50
2023-03-02T04:23:35.445Z,27.40
2023-03-02T04:24:35.429Z,28.10
2023-03-02T04:25:35.410Z,26.30
2023-03-02T04:26:35.441Z,26.10
2023-03-02T04:27:35.377Z,27.30
2023-03-02T04:28:35.385Z,27.20
2023-03-02T04:29:35.354Z,28.00
2023-03-02T04:30:35.360Z,28.00
2023-03-02T04:31:35.333Z,28.80
2023-03-02T04:32:35.421Z,28.50
2023-03-02T04:33:35.326Z,28.10
2023-03-02T04:34:35.336Z,27.20
2023-03-02T04:35:35.395Z,29.20
2023-03-02T04:36:35.615Z,28.10
2023-03-02T04:37:35.275Z,28.50
2023-03-02T04:38:35.300Z,28.70
2023-03-02T04:39:35.262Z,29.00
2023-03-02T04:40:35.250Z,29.10
2023-03-02T04:41:35.252Z,30.00
2023-03-02T04:42:35.228Z,29.90
2023-03-02T04:43:35.217Z,28.90
2023-03-02T04:44:35.248Z,30.60
2023-03-02T04:45:35.182Z,29.20
2023-03-02T04:46:35.559Z,30.20
2023-03-02T04:47:35.152Z,30.20
2023-03-02T04:48:35.137Z,28.70
2023-03-02T04:49:35.138Z,28.90
2023-03-02T04:50:35.169Z,30.00
2023-03-02T04:51:35.133Z,28.80
2023-03-02T04:52:35.089Z,28.50
2023-03-02T04:53:35.079Z,30.70
2023-03-02T04:54:35.061Z,29.80
2023-03-02T04:55:35.044Z,29.40
2023-03-02T04:56:35.428Z,29.40
2023-03-02T04:57:35.032Z,29.50
2023-03-02T04:58:35.027Z,29.20
2023-03-02T04:59:35.026Z,30.60
2023-03-02T05:00:35.009Z,29.90
2023-03-02T05:01:34.984Z,30.60
2023-03-02T05:02:35.038Z,29.80
2023-03-02T05:03:34.956Z,29.20
2023-03-02T05:04:34.952Z,30.60
2023-03-02T05:05:34.950Z,31.70
2023-03-02T05:06:35.216Z,29.40
2023-03-02T05:07:34.912Z,30.90
2023-03-02T05:08:34.934Z,30.70
2023-03-02T05:09:34.911Z,30.20
2023-03-02T05:10:34.866Z,28.90
2023-03-02T05:11:34.852Z,30.80
2023-03-02T05:12:34.828Z,30.10
2023-03-02T05:13:34.847Z,30.80
2023-03-02T05:14:34.887Z,31.50
2023-03-02T05:15:34.824Z,30.20
2023-03-02T05:16:35.380Z,30.50
2023-03-02T05:17:34.772Z,29.40
2023-03-02T05:18:34.772Z,30.40
2023-03-02T05:19:34.750Z,31.30
2023-03-02T05:20:34.767Z,30.00
2023-03-02T05:21:34.744Z,30.60
2023-03-02T05:22:34.713Z,31.10
2023-03-02T05:23:34.707Z,30.70
2023-03-02T05:24:34.695Z,29.50
2023-03-02T05:25:34.728Z,31.80
2023-03-02T05:26:35.084Z,30.20
2023-03-02T05:27:34.678Z,31.00
2023-03-02T05:28:34.705Z,31.30
2023-03-02T05:29:34.630Z,30.80
2023-03-02T05:30:34.641Z,29.80
2023-03-02T05:31:34.624Z,31.20
2023-03-02T05:32:34.723Z,31.90
2023-03-02T05:33:34.580Z,30.50
2023-03-02T05:34:34.571Z,32.40
2023-03-02T05:35:34.599Z,32.30
2023-03-02T05:36:34.995Z,30.70
2023-03-02T05:37:34.538Z,32.00
2023-03-02T05:38:34.606Z,32.10
2023-03-02T05:39:34.512Z,32.60
2023-03-02T05:40:34.525Z,30.90
2023-03-02T05:41:34.725Z,31.70
2023-03-02T05:42:34.503Z,31.20
2023-03-02T05:43:34.472Z,32.60
2023-03-02T05:44:34.522Z,31.40
2023-03-02T05:45:34.453Z,31.70
2023-03-02T05:46:34.851Z,30.40
2023-03-02T05:47:34.443Z,31.30
2023-03-02T05:48:34.389Z,31.60
2023-03-02T05:49:34.384Z,31.20
2023-03-02T05:50:34.408Z,30.90
2023-03-02T05:51:34.383Z,31.10
2023-03-02T05:52:34.353Z,31.70
2023-03-02T05:53:34.332Z,32.40
2023-03-02T05:54:34.313Z,31.60
2023-03-02T05:55:34.317Z,31.50
2023-03-02T05:56:34.707Z,33.80
2023-03-02T05:57:34.296Z,32.40
2023-03-02T05:58:34.307Z,31.50
2023-03-02T05:59:34.291Z,30.90
2023-03-02T06:00:34.276Z,32.00
2023-03-02T06:01:34.627Z,30.60
2023-03-02T06:02:34.268Z,31.90
2023-03-02T06:03:34.238Z,32.00
2023-03-02T06:04:34.225Z,31.00
2023-03-02T06:05:34.191Z,30.50
2023-03-02T06:06:34.452Z,31.70
2023-03-02T06:07:34.152Z,31.30
2023-03-02T06:08:34.178Z,30.50
2023-03-02T06:09:34.136Z,31.20
2023-03-02T06:10:34.150Z,31.10
2023-03-02T06:11:34.136Z,30.00
2023-03-02T06:12:34.104Z,30.40
2023-03-02T06:13:34.110Z,29.60
2023-03-02T06:14:34.347Z,31.80
2023-03-02T06:15:34.097Z,30.50
2023-03-02T06:16:35.190Z,31.10
2023-03-02T06:17:34.047Z,30.70
2023-03-02T06:18:34.033Z,31.20
2023-03-02T06:19:34.000Z,30.80
2023-03-02T06:20:34.067Z,31.00
2023-03-02T06:21:33.989Z,30.40
2023-03-02T06:22:33.987Z,30.90
2023-03-02T06:23:34.021Z,31.30
2023-03-02T06:24:33.992Z,32.40
2023-03-02T06:25:33.953Z,30.90
2023-03-02T06:26:34.320Z,31.60
2023-03-02T06:27:34.033Z,32.30
2023-03-02T06:28:46.342Z,31.10
2023-03-02T06:29:33.956Z,30.60
2023-03-02T06:30:33.908Z,31.30
2023-03-02T06:31:33.997Z,29.80
2023-03-02T06:32:34.004Z,29.90
2023-03-02T06:33:33.891Z,29.20
2023-03-02T06:34:35.444Z,30.80
2023-03-02T06:35:33.970Z,30.90
2023-03-02T06:36:34.196Z,28.80
2023-03-02T06:37:33.790Z,29.60
2023-03-02T06:38:33.809Z,28.40
2023-03-02T06:39:33.766Z,29.00
2023-03-02T06:40:34.331Z,29.10
2023-03-02T06:41:34.191Z,30.50
2023-03-02T06:42:33.746Z,29.70
2023-03-02T06:43:33.709Z,30.50
2023-03-02T06:44:33.747Z,29.10
2023-03-02T06:45:33.881Z,29.00
2023-03-02T06:46:34.065Z,30.60
2023-03-02T06:47:33.668Z,29.20
2023-03-02T06:48:33.642Z,29.40
2023-03-02T06:49:33.626Z,28.50
2023-03-02T06:50:33.674Z,29.00
2023-03-02T06:51:33.629Z,28.20
2023-03-02T06:52:33.608Z,29.20
2023-03-02T06:53:33.594Z,28.80
2023-03-02T06:54:33.618Z,29.00
2023-03-02T06:55:33.564Z,28.80
2023-03-02T06:56:33.969Z,29.00
2023-03-02T06:57:34.411Z,29.80
2023-03-02T06:58:33.529Z,28.50
2023-03-02T06:59:33.519Z,28.80
2023-03-02T07:00:33.503Z,29.40
2023-03-02T07:01:33.855Z,29.20
2023-03-02T07:02:33.512Z,28.80
2023-03-02T07:03:33.502Z,29.10
2023-03-02T07:04:33.448Z,28.20
2023-03-02T07:05:33.452Z,28.60
2023-03-02T07:06:33.426Z,27.60
2023-03-02T07:07:33.415Z,28.30
2023-03-02T07:08:33.465Z,28.10
2023-03-02T07:09:33.402Z,28.90
2023-03-02T07:10:33.382Z,28.90
2023-03-02T07:11:33.693Z,28.60
2023-03-02T07:12:33.347Z,27.60
2023-03-02T07:13:33.327Z,27.30
2023-03-02T07:14:33.393Z,28.10
2023-03-02T07:15:33.322Z,28.50
2023-03-02T07:16:33.347Z,26.90
2023-03-02T07:17:33.284Z,27.20
2023-03-02T07:18:33.265Z,29.20
2023-03-02T07:19:33.254Z,27.60
2023-03-02T07:20:33.299Z,27.30
2023-03-02T07:21:33.588Z,27.30
2023-03-02T07:22:33.226Z,27.60
2023-03-02T07:23:33.220Z,27.80
2023-03-02T07:24:33.194Z,28.20
2023-03-02T07:25:33.187Z,28.10
2023-03-02T07:26:33.220Z,26.50
2023-03-02T07:27:33.166Z,26.00
2023-03-02T07:28:33.142Z,27.20
2023-03-02T07:29:33.135Z,28.30
2023-03-02T07:30:33.245Z,26.30
2023-03-02T07:31:33.444Z,26.20
2023-03-02T07:32:33.230Z,26.20
2023-03-02T07:33:33.086Z,26.10
2023-03-02T07:34:33.103Z,27.70
2023-03-02T07:35:33.084Z,26.80
2023-03-02T07:36:33.042Z,25.90
2023-03-02T07:37:33.054Z,27.80
2023-03-02T07:38:33.105Z,27.00
2023-03-02T07:39:33.024Z,26.30
2023-03-02T07:40:33.002Z,27.50
2023-03-02T07:41:33.385Z,26.50
2023-03-02T07:42:32.986Z,28.10
2023-03-02T07:43:32.963Z,26.80
2023-03-02T07:44:32.990Z,26.60
2023-03-02T07:45:32.941Z,26.20
2023-03-02T07:46:32.968Z,27.30
2023-03-02T07:47:32.923Z,26.60
2023-03-02T07:48:32.917Z,26.70
2023-03-02T07:49:32.881Z,26.40
2023-03-02T07:50:32.922Z,26.80
2023-03-02T07:51:33.189Z,27.00
2023-03-02T07:52:32.845Z,25.80
2023-03-02T07:53:32.838Z,26.30
2023-03-02T07:54:32.833Z,26.30
2023-03-02T07:55:32.822Z,27.00
2023-03-02T07:56:32.840Z,26.40
2023-03-02T07:57:32.812Z,27.30
2023-03-02T07:58:32.804Z,25.40
2023-03-02T07:59:32.767Z,29.10
2023-03-02T08:00:32.760Z,27.70
2023-03-02T08:01:33.092Z,25.20
2023-03-02T08:02:32.806Z,26.30
2023-03-02T08:03:32.718Z,26.30
2023-03-02T08:04:32.708Z,25.60
2023-03-02T08:05:32.700Z,25.90
2023-03-02T08:06:32.701Z,26.60
2023-03-02T08:07:32.664Z,25.50
2023-03-02T08:08:32.734Z,25.70
2023-03-02T08:09:32.645Z,26.90
2023-03-02T08:10:32.617Z,27.10
2023-03-02T08:11:33.023Z,26.30
2023-03-02T08:12:32.644Z,25.20
2023-03-02T08:13:32.587Z,25.40
2023-03-02T08:14:32.620Z,25.00
2023-03-02T08:15:32.584Z,25.00
2023-03-02T08:16:32.587Z,26.40
2023-03-02T08:17:32.644Z,25.80
2023-03-02T08:18:32.579Z,25.30
2023-03-02T08:19:32.587Z,25.60
2023-03-02T08:20:32.549Z,25.20
2023-03-02T08:21:32.875Z,26.30
2023-03-02T08:22:32.513Z,25.20
2023-03-02T08:23:32.497Z,25.50
2023-03-02T08:24:53.456Z,24.90
2023-03-02T08:25:32.441Z,25.40
2023-03-02T08:26:32.470Z,25.30
2023-03-02T08:27:32.454Z,25.50
2023-03-02T08:28:32.417Z,25.70
2023-03-02T08:29:32.416Z,25.30
2023-03-02T08:30:32.391Z,25.70
2023-03-02T08:31:33.505Z,25.20
2023-03-02T08:32:32.422Z,25.40
2023-03-02T08:33:32.363Z,25.10
2023-03-02T08:34:32.328Z,24.60
2023-03-02T08:35:32.331Z,26.60
2023-03-02T08:36:32.704Z,26.30
2023-03-02T08:37:32.280Z,26.00
2023-03-02T08:38:32.339Z,24.70
2023-03-02T08:39:32.290Z,25.00
2023-03-02T08:40:32.240Z,25.10
2023-03-02T08:41:32.732Z,26.20
2023-03-02T08:42:32.217Z,24.60
2023-03-02T08:43:32.222Z,24.60
2023-03-02T08:44:32.301Z,24.60
2023-03-02T08:45:32.221Z,24.70
2023-03-02T08:46:32.210Z,23.90
2023-03-02T08:47:32.180Z,23.60
2023-03-02T08:48:32.200Z,25.00
2023-03-02T08:49:32.162Z,25.00
2023-03-02T08:50:32.192Z,24.60
2023-03-02T08:51:32.346Z,25.80
2023-03-02T08:52:32.133Z,25.60
2023-03-02T08:53:32.096Z,25.90
2023-03-02T08:54:32.133Z,25.40
2023-03-02T08:55:32.070Z,23.60
2023-03-02T08:56:32.689Z,24.20
2023-03-02T08:57:32.043Z,24.00
2023-03-02T08:58:32.037Z,25.10
2023-03-02T08:59:32.016Z,24.90
2023-03-02T09:00:32.121Z,23.20
2023-03-02T09:01:32.523Z,23.30
2023-03-02T09:02:32.018Z,24.00
2023-03-02T09:03:31.939Z,24.90
2023-03-02T09:04:31.991Z,24.10
2023-03-02T09:05:31.938Z,24.40
2023-03-02T09:06:31.934Z,24.20
2023-03-02T09:07:31.913Z,23.70
2023-03-02T09:08:32.036Z,24.60
2023-03-02T09:09:31.889Z,24.90
2023-03-02T09:10:31.915Z,24.30
2023-03-02T09:11:32.289Z,24.90
2023-03-02T09:12:31.867Z,25.50
2023-03-02T09:13:31.863Z,24.50
2023-03-02T09:14:31.908Z,24.30
2023-03-02T09:15:31.797Z,25.20
2023-03-02T09:16:31.885Z,24.60
2023-03-02T09:17:31.789Z,25.30
2023-03-02T09:18:31.829Z,23.90
2023-03-02T09:19:31.826Z,24.00
2023-03-02T09:20:31.804Z,25.60
2023-03-02T09:21:32.028Z,24.00
2023-03-02T09:22:31.731Z,24.60
2023-03-02T09:23:31.727Z,24.80
2023-03-02T09:24:31.687Z,25.80
2023-03-02T09:25:31.705Z,24.20
2023-03-02T09:26:31.704Z,24.30
2023-03-02T09:27:31.688Z,25.80
2023-03-02T09:28:31.654Z,25.00
2023-03-02T09:29:31.647Z,23.90
2023-03-02T09:30:31.608Z,23.70
2023-03-02T09:31:31.851Z,25.40
2023-03-02T09:32:31.752Z,24.00
2023-03-02T09:33:31.596Z,25.40
2023-03-02T09:34:31.572Z,24.10
2023-03-02T09:35:31.577Z,24.10
2023-03-02T09:36:31.667Z,24.00
2023-03-02T09:37:31.600Z,26.90
2023-03-02T09:38:31.566Z,26.00
2023-03-02T09:39:31.500Z,24.90
2023-03-02T09:40:31.510Z,24.50
2023-03-02T09:41:31.939Z,24.50
2023-03-02T09:42:43.029Z,24.90
2023-03-02T09:43:31.479Z,24.80
2023-03-02T09:44:31.515Z,24.80
2023-03-02T09:45:31.445Z,25.00
2023-03-02T09:46:31.436Z,25.50
2023-03-02T09:47:35.913Z,25.80
2023-03-02T09:48:31.436Z,25.20
2023-03-02T09:49:31.420Z,25.50
2023-03-02T09:50:31.426Z,25.40
2023-03-02T09:51:31.670Z,25.00
2023-03-02T09:52:31.407Z,25.80
2023-03-02T09:53:31.319Z,26.40
2023-03-02T09:54:31.354Z,25.50
2023-03-02T09:55:31.294Z,25.10
2023-03-02T09:56:31.870Z,24.90
2023-03-02T09:57:31.296Z,25.80
2023-03-02T09:58:31.311Z,25.40
2023-03-02T09:59:31.278Z,26.60
2023-03-02T10:00:31.284Z,24.60
2023-03-02T10:01:31.227Z,24.60
2023-03-02T10:02:31.280Z,26.30
2023-03-02T10:03:31.319Z,25.00
2023-03-02T10:04:31.305Z,26.30
2023-03-02T10:05:31.183Z,25.70
2023-03-02T10:06:31.499Z,24.80
2023-03-02T10:07:31.161Z,25.80
2023-03-02T10:08:31.179Z,25.70
2023-03-02T10:09:31.119Z,25.30
2023-03-02T10:10:31.115Z,25.20
2023-03-02T10:11:31.092Z,24.50
2023-03-02T10:12:31.074Z,24.70
2023-03-02T10:13:31.069Z,24.60
2023-03-02T10:14:31.098Z,24.60
2023-03-02T10:15:31.048Z,24.20
2023-03-02T10:16:31.543Z,24.70
2023-03-02T10:17:31.030Z,24.00
2023-03-02T10:18:31.056Z,24.10
2023-03-02T10:19:30.999Z,25.00
2023-03-02T10:20:34.216Z,23.70
2023-03-02T10:21:30.976Z,24.70
2023-03-02T10:22:30.945Z,25.90
2023-03-02T10:23:30.928Z,25.50
2023-03-02T10:24:30.938Z,25.30
2023-03-02T10:25:30.939Z,24.40
2023-03-02T10:26:31.445Z,25.40
2023-03-02T10:27:30.877Z,24.20
2023-03-02T10:28:30.884Z,23.70
2023-03-02T10:29:30.876Z,23.50
2023-03-02T10:30:30.959Z,23.80
2023-03-02T10:31:30.870Z,24.40
2023-03-02T10:32:30.892Z,24.10
2023-03-02T10:33:30.817Z,23.50
2023-03-02T10:34:30.853Z,23.00
2023-03-02T10:35:30.852Z,23.30
2023-03-02T10:36:30.782Z,24.20
2023-03-02T10:37:30.825Z,23.80
2023-03-02T10:38:30.773Z,23.60
2023-03-02T10:39:30.748Z,24.00
2023-03-02T10:40:30.759Z,24.10
2023-03-02T10:41:30.735Z,24.60
2023-03-02T10:42:30.823Z,24.60
2023-03-02T10:43:30.690Z,24.30
2023-03-02T10:44:30.736Z,23.30
2023-03-02T10:45:30.677Z,23.20
2023-03-02T10:46:30.845Z,22.90
2023-03-02T10:47:30.678Z,23.90
2023-03-02T10:48:30.677Z,24.00
2023-03-02T10:49:30.632Z,23.70
2023-03-02T10:50:30.654Z,23.70
2023-03-02T10:51:30.588Z,23.40
2023-03-02T10:52:30.592Z,23.40
2023-03-02T10:53:30.544Z,23.30
2023-03-02T10:54:30.548Z,22.60
2023-03-02T10:55:30.537Z,23.00
2023-03-02T10:56:30.580Z,23.40
2023-03-02T10:57:30.496Z,22.70
2023-03-02T10:58:30.497Z,21.60
2023-03-02T10:59:30.478Z,21.90
2023-03-02T11:00:30.501Z,27.00
2023-03-02T11:01:30.519Z,33.40
2023-03-02T11:02:30.483Z,44.30
2023-03-02T11:03:30.470Z,28.90
2023-03-02T11:04:30.467Z,36.10
2023-03-02T11:05:30.451Z,50.90
2023-03-02T11:06:30.674Z,33.00
2023-03-02T11:07:30.401Z,34.60
2023-03-02T11:08:30.402Z,23.50
2023-03-02T11:09:30.357Z,25.50
2023-03-02T11:10:30.347Z,35.20
2023-03-02T11:11:30.491Z,31.70
2023-03-02T11:12:30.568Z,131.40
2023-03-02T11:13:30.332Z,87.80
2023-03-02T11:14:30.348Z,31.40
2023-03-02T11:15:30.299Z,26.60
2023-03-02T11:16:30.296Z,22.20
2023-03-02T11:17:30.285Z,25.70
2023-03-02T11:18:30.303Z,23.20
2023-03-02T11:19:30.232Z,22.80
2023-03-02T11:20:30.307Z,27.50
2023-03-02T11:21:30.464Z,22.00
2023-03-02T11:22:30.249Z,21.10
2023-03-02T11:23:30.211Z,21.50
2023-03-02T11:24:30.234Z,21.50
2023-03-02T11:25:30.145Z,22.10
2023-03-02T11:26:30.163Z,24.90
2023-03-02T11:27:30.162Z,24.60
2023-03-02T11:28:30.109Z,21.30
2023-03-02T11:29:30.087Z,21.10
2023-03-02T11:30:30.077Z,20.90
2023-03-02T11:31:30.140Z,21.50
2023-03-02T11:32:30.172Z,21.20
2023-03-02T11:33:30.089Z,20.60
2023-03-02T11:34:30.060Z,20.50
2023-03-02T11:35:30.061Z,20.50
2023-03-02T11:36:30.012Z,20.00
2023-03-02T11:37:30.037Z,20.40
2023-03-02T11:38:30.052Z,19.60
2023-03-02T11:39:30.002Z,20.30
2023-03-02T11:40:29.951Z,20.00
2023-03-02T11:41:30.213Z,20.50
2023-03-02T11:42:30.044Z,19.60
2023-03-02T11:43:29.944Z,20.10
2023-03-02T11:44:29.936Z,20.30
2023-03-02T11:45:29.877Z,20.20
2023-03-02T11:46:29.928Z,20.00
2023-03-02T11:47:29.865Z,21.00
2023-03-02T11:48:29.883Z,20.30
2023-03-02T11:49:29.836Z,21.40
2023-03-02T11:50:29.904Z,22.70
2023-03-02T11:51:29.841Z,22.90
2023-03-02T11:52:29.807Z,22.50
2023-03-02T11:53:29.848Z,23.30
2023-03-02T11:54:29.806Z,23.80
2023-03-02T11:55:29.754Z,23.20
2023-03-02T11:56:29.817Z,23.30
2023-03-02T11:57:29.762Z,23.50
2023-03-02T11:58:29.900Z,24.10
2023-03-02T11:59:29.718Z,22.90
2023-03-02T12:00:29.715Z,25.20
2023-03-02T12:01:29.710Z,29.40
2023-03-02T12:02:29.737Z,23.90
2023-03-02T12:03:29.721Z,24.40
2023-03-02T12:04:29.660Z,21.70
2023-03-02T12:05:29.681Z,22.40
2023-03-02T12:06:29.626Z,21.90
2023-03-02T12:07:29.624Z,23.30
2023-03-02T12:08:29.685Z,22.90
2023-03-02T12:09:29.601Z,22.30
2023-03-02T12:10:29.589Z,22.50
2023-03-02T12:11:29.578Z,21.00
2023-03-02T12:12:29.547Z,20.40
2023-03-02T12:13:29.554Z,23.20
2023-03-02T12:14:29.615Z,23.20
2023-03-02T12:15:29.514Z,23.40
2023-03-02T12:16:29.544Z,21.60
2023-03-02T12:17:29.526Z,34.90
2023-03-02T12:18:29.489Z,23.80
2023-03-02T12:19:29.485Z,21.60
2023-03-02T12:20:29.822Z,21.50
2023-03-02T12:21:29.443Z,20.70
2023-03-02T12:22:29.415Z,21.30
2023-03-02T12:23:29.407Z,22.70
2023-03-02T12:24:29.412Z,25.30
2023-03-02T12:25:29.396Z,22.30
2023-03-02T12:26:29.416Z,21.50
2023-03-02T12:27:29.381Z,21.70
2023-03-02T12:28:29.373Z,27.30
2023-03-02T12:29:29.360Z,23.00
2023-03-02T12:30:29.317Z,25.70
2023-03-02T12:31:29.332Z,23.00
2023-03-02T12:32:29.371Z,22.80
2023-03-02T12:33:29.313Z,22.30
2023-03-02T12:34:30.807Z,21.90
2023-03-02T12:35:29.283Z,22.50
2023-03-02T12:36:29.229Z,21.90
2023-03-02T12:37:29.301Z,20.80
2023-03-02T12:38:29.312Z,20.40
2023-03-02T12:39:29.238Z,20.60
2023-03-02T12:40:29.194Z,20.90
2023-03-02T12:41:29.196Z,20.60
2023-03-02T12:42:29.179Z,21.10
2023-03-02T12:43:29.188Z,23.60
2023-03-02T12:44:29.237Z,21.90
2023-03-02T12:45:29.264Z,22.30
2023-03-02T12:46:29.144Z,21.70
2023-03-02T12:47:29.716Z,21.90
2023-03-02T12:48:29.152Z,23.20
2023-03-02T12:49:29.076Z,23.10
2023-03-02T12:50:29.093Z,23.10
2023-03-02T12:51:29.352Z,22.50
2023-03-02T12:52:29.303Z,22.90
2023-03-02T12:53:29.032Z,23.60